createdAt,value
2023-02-19T00:03:19.772Z,24.05
2023-02-19T00:07:21.551Z,18.50
2023-02-19T00:11:26.264Z,25.25
2023-02-19T00:15:28.246Z,22.20
2023-02-19T00:19:30.363Z,14.10
2023-02-19T00:23:32.489Z,15.18
2023-02-19T00:27:34.368Z,16.00
2023-02-19T00:31:36.531Z,19.73
2023-02-19T00:35:38.567Z,11.52
2023-02-19T00:39:40.501Z,25.55
2023-02-19T00:43:43.518Z,18.58
2023-02-19T00:47:45.298Z,18.17
2023-02-19T00:51:48.016Z,23.90
2023-02-19T00:55:50.059Z,17.25
2023-02-19T00:59:52.056Z,23.58
2023-02-19T01:03:54.149Z,15.90
2023-02-19T01:07:56.087Z,12.70
2023-02-19T01:11:58.047Z,16.98
2023-02-19T01:16:13.372Z,18.13
2023-02-19T01:20:15.501Z,27.05
2023-02-19T01:24:17.428Z,20.85
2023-02-19T01:28:19.411Z,19.92
2023-02-19T01:32:21.077Z,21.52
2023-02-19T01:36:23.981Z,25.20
2023-02-19T01:40:26.677Z,27.08
2023-02-19T01:44:28.626Z,14.48
2023-02-19T01:48:38.241Z,15.23
2023-02-19T01:52:40.293Z,13.90
2023-02-19T01:56:44.629Z,17.52
2023-02-19T02:00:47.781Z,12.23
2023-02-19T02:04:50.038Z,15.02
2023-02-19T02:09:14.182Z,9.88
2023-02-19T02:13:16.212Z,11.90
2023-02-19T02:17:29.041Z,16.83
2023-02-19T02:21:53.240Z,11.30
2023-02-19T02:26:08.420Z,15.07
2023-02-19T02:30:18.751Z,18.17
2023-02-19T02:34:29.602Z,17.85
2023-02-19T02:38:35.094Z,16.15
2023-02-19T02:42:39.674Z,15.95
2023-02-19T02:46:46.647Z,22.50
2023-02-19T02:51:16.034Z,15.68
2023-02-19T02:55:26.521Z,22.52
2023-02-19T02:59:33.081Z,16.55
2023-02-19T03:03:38.394Z,21.42
2023-02-19T03:07:51.023Z,24.55
2023-02-19T03:12:13.835Z,18.25
2023-02-19T03:16:47.301Z,16.33
2023-02-19T03:20:53.383Z,17.52
2023-02-19T03:25:23.432Z,15.45
2023-02-19T03:29:29.652Z,21.60
2023-02-19T03:33:40.791Z,20.15
2023-02-19T03:37:52.979Z,23.60
2023-02-19T03:41:55.693Z,15.27
2023-02-19T03:46:26.914Z,16.40
2023-02-19T03:50:45.936Z,17.48
2023-02-19T03:54:57.317Z,18.70
2023-02-19T03:59:09.363Z,16.67
2023-02-19T04:03:19.330Z,12.60
2023-02-19T04:07:23.920Z,14.65
2023-02-19T04:11:29.030Z,18.40
2023-02-19T04:15:41.041Z,14.15
2023-02-19T04:19:43.453Z,18.33
2023-02-19T04:23:46.060Z,11.07
2023-02-19T04:27:48.669Z,17.83
2023-02-19T04:31:50.775Z,18.65
2023-02-19T04:35:52.762Z,19.13
2023-02-19T04:39:54.860Z,15.50
2023-02-19T04:43:56.790Z,17.35
2023-02-19T04:47:59.042Z,13.98
2023-02-19T04:52:01.094Z,15.43
2023-02-19T04:56:15.129Z,29.75
2023-02-19T05:00:17.115Z,15.88
2023-02-19T05:04:19.191Z,14.48
2023-02-19T05:08:21.224Z,16.17
2023-02-19T05:12:23.161Z,14.70
2023-02-19T05:16:25.176Z,17.75
2023-02-19T05:20:27.207Z,16.50
2023-02-19T05:24:29.951Z,13.95
2023-02-19T05:28:31.979Z,13.27
2023-02-19T05:32:35.103Z,17.80
2023-02-19T05:36:37.573Z,23.40
2023-02-19T05:40:39.971Z,14.70
2023-02-19T05:44:42.612Z,29.40
2023-02-19T05:48:44.549Z,19.60
2023-02-19T05:52:46.593Z,17.20
2023-02-19T05:56:48.543Z,19.60
2023-02-19T06:00:50.663Z,18.77
2023-02-19T06:04:52.626Z,18.48
2023-02-19T06:08:54.821Z,18.92
2023-02-19T06:12:56.569Z,19.92
2023-02-19T06:16:58.507Z,24.13
2023-02-19T06:21:05.621Z,24.42
2023-02-19T06:25:12.412Z,21.02
2023-02-19T06:29:14.478Z,21.58
2023-02-19T06:33:16.446Z,17.33
2023-02-19T06:37:18.121Z,27.73
2023-02-19T06:41:20.104Z,16.45
2023-02-19T06:45:22.114Z,21.95
2023-02-19T06:49:24.189Z,26.25
2023-02-19T06:53:26.358Z,33.42
2023-02-19T06:57:28.575Z,21.23
2023-02-19T07:01:32.324Z,23.30
2023-02-19T07:05:34.336Z,26.52
2023-02-19T07:09:36.312Z,25.75
2023-02-19T07:13:38.259Z,23.48
2023-02-19T07:17:40.177Z,24.50
2023-02-19T07:21:42.392Z,21.85
2023-02-19T07:25:44.369Z,23.83
2023-02-19T07:29:46.397Z,24.00
2023-02-19T07:33:48.662Z,19.33
2023-02-19T07:37:50.658Z,21.45
2023-02-19T07:41:52.573Z,19.00
2023-02-19T07:46:06.878Z,17.65
2023-02-19T07:50:09.191Z,19.52
2023-02-19T07:54:11.634Z,31.25
2023-02-19T07:58:14.026Z,26.15
2023-02-19T08:02:39.029Z,21.33
2023-02-19T08:06:42.349Z,21.92
2023-02-19T08:11:03.018Z,27.13
2023-02-19T08:15:05.023Z,21.88
2023-02-19T08:19:07.023Z,19.77
2023-02-19T08:23:10.381Z,31.35
2023-02-19T08:27:12.309Z,22.05
2023-02-19T08:31:15.206Z,29.27
2023-02-19T08:35:17.539Z,24.38
2023-02-19T08:39:20.990Z,24.27
2023-02-19T08:43:23.137Z,27.02
2023-02-19T08:47:25.158Z,28.35
2023-02-19T08:51:27.214Z,22.10
2023-02-19T08:55:29.166Z,28.55
2023-02-19T08:59:31.780Z,15.55
2023-02-19T09:03:33.803Z,18.45
2023-02-19T09:07:35.764Z,21.48
2023-02-19T09:11:40.881Z,19.05
2023-02-19T09:15:42.873Z,21.33
2023-02-19T09:19:44.878Z,20.90
2023-02-19T09:23:46.964Z,24.92
2023-02-19T09:27:48.890Z,21.55
2023-02-19T09:31:50.945Z,22.77
2023-02-19T09:35:52.965Z,19.08
2023-02-19T09:39:55.494Z,25.50
2023-02-19T09:43:59.780Z,16.25
2023-02-19T09:48:02.300Z,16.88
2023-02-19T09:52:49.689Z,21.88
2023-02-19T09:56:55.003Z,16.98
2023-02-19T10:01:00.175Z,19.35
2023-02-19T10:05:03.601Z,18.30
2023-02-19T10:09:22.083Z,22.48
2023-02-19T10:13:32.579Z,18.05
2023-02-19T10:17:35.570Z,19.25
2023-02-19T10:21:38.229Z,17.23
2023-02-19T10:25:45.606Z,11.23
2023-02-19T10:29:50.187Z,16.25
2023-02-19T10:33:57.138Z,13.40
2023-02-19T10:37:59.190Z,13.00
2023-02-19T10:42:01.188Z,20.45
2023-02-19T10:46:08.566Z,12.02
2023-02-19T10:50:35.266Z,25.88
2023-02-19T10:54:37.359Z,12.65
2023-02-19T10:58:42.295Z,13.38
2023-02-19T11:02:45.083Z,17.02
2023-02-19T11:06:47.780Z,21.45
2023-02-19T11:10:50.715Z,11.98
2023-02-19T11:14:52.817Z,12.35
2023-02-19T11:18:57.309Z,11.45
2023-02-19T11:23:04.549Z,8.73
2023-02-19T11:27:18.026Z,15.55
2023-02-19T11:31:20.050Z,15.73
2023-02-19T11:35:25.167Z,16.50
2023-02-19T11:39:31.161Z,19.55
2023-02-19T11:43:51.882Z,15.98
2023-02-19T11:48:07.639Z,15.00
2023-02-19T11:52:28.001Z,17.58
2023-02-19T11:56:37.016Z,9.40
2023-02-19T12:00:52.958Z,15.02
2023-02-19T12:05:16.846Z,8.30
2023-02-19T12:10:05.514Z,11.80
2023-02-19T12:14:39.748Z,9.88
2023-02-19T12:19:02.143Z,8.77
2023-02-19T12:23:32.589Z,12.35
2023-02-19T12:27:40.437Z,13.85
2023-02-19T12:31:54.361Z,10.52
2023-02-19T12:36:05.802Z,12.20
2023-02-19T12:40:21.217Z,14.95
2023-02-19T12:44:39.024Z,16.73
2023-02-19T12:48:53.251Z,11.30
2023-02-19T12:53:11.576Z,18.48
2023-02-19T12:57:34.640Z,16.33
2023-02-19T13:01:59.366Z,13.82
2023-02-19T13:06:09.390Z,16.98
2023-02-19T13:10:30.984Z,9.93
2023-02-19T13:14:38.830Z,12.48
2023-02-19T13:18:50.538Z,14.63
2023-02-19T13:23:24.149Z,10.77
2023-02-19T13:32:14.265Z,11.75
2023-02-19T13:36:27.474Z,5.70
2023-02-19T13:40:37.525Z,13.50
2023-02-19T13:44:41.323Z,16.10
2023-02-19T13:48:44.461Z,9.02
2023-02-19T13:52:46.803Z,11.75
2023-02-19T13:56:49.962Z,11.05
2023-02-19T14:00:53.883Z,8.88
2023-02-19T14:05:00.156Z,6.75
2023-02-19T14:09:02.441Z,15.30
2023-02-19T14:13:08.275Z,8.50
2023-02-19T14:17:10.238Z,7.00
2023-02-19T14:21:35.953Z,22.52
2023-02-19T14:26:03.663Z,12.02
2023-02-19T14:30:06.399Z,11.77
2023-02-19T14:34:22.909Z,9.55
2023-02-19T14:38:33.193Z,11.48
2023-02-19T14:42:35.740Z,7.63
2023-02-19T14:46:42.445Z,11.00
2023-02-19T14:50:47.506Z,7.05
2023-02-19T14:54:54.411Z,7.88
2023-02-19T14:59:23.049Z,11.82
2023-02-19T15:03:35.356Z,6.53
2023-02-19T15:07:37.399Z,8.70
2023-02-19T15:11:43.051Z,11.70
2023-02-19T15:15:46.463Z,8.93
2023-02-19T15:19:48.683Z,8.98
2023-02-19T15:24:00.040Z,6.63
2023-02-19T15:28:23.664Z,9.45
2023-02-19T15:32:27.764Z,11.93
2023-02-19T15:36:32.746Z,9.85
2023-02-19T15:40:35.285Z,11.40
2023-02-19T15:44:41.304Z,13.10
2023-02-19T15:49:09.694Z,5.65
2023-02-19T15:53:23.179Z,5.93
2023-02-19T15:57:32.674Z,7.72
2023-02-19T16:01:38.528Z,7.47
2023-02-19T16:05:41.859Z,6.90
2023-02-19T16:09:43.583Z,5.57
2023-02-19T16:13:45.700Z,13.05
2023-02-19T16:17:47.681Z,16.40
2023-02-19T16:21:50.561Z,13.50
2023-02-19T16:26:02.140Z,12.90
2023-02-19T16:30:28.679Z,10.50
2023-02-19T16:34:48.332Z,8.90
2023-02-19T16:39:08.303Z,13.68
2023-02-19T16:43:13.115Z,13.07
2023-02-19T16:47:22.850Z,9.85
2023-02-19T16:51:26.918Z,17.40
2023-02-19T16:55:30.310Z,9.38
2023-02-19T16:59:32.327Z,15.35
2023-02-19T17:03:34.382Z,15.40
2023-02-19T17:07:36.536Z,9.98
2023-02-19T17:11:38.582Z,10.35
2023-02-19T17:15:40.131Z,9.30
2023-02-19T17:19:42.347Z,11.63
2023-02-19T17:23:44.356Z,10.10
2023-02-19T17:27:46.129Z,13.25
2023-02-19T17:31:48.235Z,11.43
2023-02-19T17:35:50.321Z,11.70
2023-02-19T17:39:52.256Z,7.75
2023-02-19T17:43:54.496Z,12.23
2023-02-19T17:47:56.621Z,8.60
2023-02-19T17:51:59.678Z,10.68
2023-02-19T17:56:01.805Z,8.45
2023-02-19T18:00:05.781Z,15.95
2023-02-19T18:04:14.449Z,13.35
2023-02-19T18:08:16.523Z,7.63
2023-02-19T18:12:18.601Z,9.25
2023-02-19T18:16:22.079Z,9.15
2023-02-19T18:20:27.234Z,8.07
2023-02-19T18:24:29.300Z,11.52
2023-02-19T18:28:31.212Z,10.60
2023-02-19T18:32:33.310Z,13.70
2023-02-19T18:36:35.430Z,9.18
2023-02-19T18:40:37.468Z,9.20
2023-02-19T18:44:40.179Z,7.38
2023-02-19T18:48:42.306Z,12.07
2023-02-19T18:52:44.487Z,11.75
2023-02-19T18:56:46.871Z,14.77
2023-02-19T19:00:48.797Z,10.77
2023-02-19T19:04:53.016Z,14.90
2023-02-19T19:08:55.067Z,10.88
2023-02-19T19:12:58.532Z,11.98
2023-02-19T19:17:00.510Z,9.73
2023-02-19T19:21:03.557Z,10.23
2023-02-19T19:25:06.275Z,10.23
2023-02-19T19:29:09.263Z,9.57
2023-02-19T19:33:12.151Z,14.07
2023-02-19T19:37:16.073Z,12.68
2023-02-19T19:41:20.244Z,13.38
2023-02-19T19:45:22.391Z,16.50
2023-02-19T19:49:24.528Z,13.10
2023-02-19T19:53:26.680Z,9.63
2023-02-19T19:57:28.700Z,10.93
2023-02-19T20:01:30.846Z,10.55
2023-02-19T20:05:32.790Z,9.57
2023-02-19T20:09:34.797Z,9.70
2023-02-19T20:13:36.867Z,10.65
2023-02-19T20:17:39.343Z,16.00
2023-02-19T20:21:49.456Z,12.07
2023-02-19T20:25:51.510Z,10.48
2023-02-19T20:29:53.503Z,11.57
2023-02-19T20:33:55.630Z,9.93
2023-02-19T20:37:57.582Z,11.63
2023-02-19T20:41:59.826Z,15.55
2023-02-19T20:46:01.908Z,10.65
2023-02-19T20:50:04.509Z,10.73
2023-02-19T20:54:06.481Z,10.07
2023-02-19T20:58:08.519Z,8.15
2023-02-19T21:02:19.571Z,12.48
2023-02-19T21:06:22.330Z,10.88
2023-02-19T21:10:25.956Z,7.78
2023-02-19T21:14:27.993Z,10.98
2023-02-19T21:18:30.006Z,8.07
2023-02-19T21:22:32.044Z,8.85
2023-02-19T21:26:36.092Z,12.95
2023-02-19T21:30:38.217Z,8.18
2023-02-19T21:34:40.327Z,11.38
2023-02-19T21:38:42.358Z,17.25
2023-02-19T21:42:44.627Z,7.55
2023-02-19T21:46:47.172Z,10.65
2023-02-19T21:50:49.280Z,13.98
2023-02-19T21:54:51.382Z,20.20
2023-02-19T21:58:53.700Z,8.88
2023-02-19T22:02:56.096Z,12.05
2023-02-19T22:06:58.136Z,13.25
2023-02-19T22:11:00.124Z,9.80
2023-02-19T22:15:02.082Z,14.88
2023-02-19T22:19:04.800Z,13.43
2023-02-19T22:23:06.826Z,12.05
2023-02-19T22:27:09.111Z,12.60
2023-02-19T22:31:11.147Z,14.73
2023-02-19T22:35:15.451Z,15.70
2023-02-19T22:39:26.075Z,7.78
2023-02-19T22:43:28.028Z,16.73
2023-02-19T22:47:29.956Z,34.15
2023-02-19T22:51:32.688Z,15.10
2023-02-19T22:55:34.617Z,30.77
2023-02-19T22:59:36.567Z,20.27
2023-02-19T23:03:57.117Z,16.48
2023-02-19T23:07:59.160Z,28.70
2023-02-19T23:12:07.701Z,29.55
2023-02-19T23:16:10.026Z,18.48
2023-02-19T23:20:12.569Z,23.17
2023-02-19T23:24:15.707Z,17.40
2023-02-19T23:28:17.698Z,21.85
2023-02-19T23:32:21.025Z,20.90
2023-02-19T23:36:23.888Z,13.15
2023-02-19T23:40:25.985Z,21.83
2023-02-19T23:44:27.969Z,21.13
2023-02-19T23:48:30.063Z,14.55
2023-02-19T23:52:32.026Z,18.08
2023-02-19T23:56:34.762Z,25.02
